createdAt,value
2023-01-03T00:02:00.747Z,3.47
2023-01-03T00:04:27.372Z,3.46
2023-01-03T00:06:54.264Z,3.28
2023-01-03T00:09:23.409Z,3.42
2023-01-03T00:12:12.207Z,3.55
2023-01-03T00:14:42.414Z,3.60
2023-01-03T00:17:11.015Z,3.50
2023-01-03T00:19:40.512Z,3.66
2023-01-03T00:22:07.679Z,3.72
2023-01-03T00:24:34.237Z,3.62
2023-01-03T00:27:01.065Z,3.66
2023-01-03T00:29:28.040Z,3.74
2023-01-03T00:31:54.600Z,3.68
2023-01-03T00:34:21.326Z,3.80
2023-01-03T00:36:47.805Z,3.64
2023-01-03T00:39:14.611Z,3.92
2023-01-03T00:41:41.640Z,3.96
2023-01-03T00:44:08.785Z,3.98
2023-01-03T00:46:36.162Z,4.01
2023-01-03T00:49:04.257Z,4.11
2023-01-03T00:51:33.470Z,4.18
2023-01-03T00:54:01.650Z,4.29
2023-01-03T00:56:32.898Z,4.35
2023-01-03T00:58:59.463Z,4.31
2023-01-03T01:01:29.471Z,4.46
2023-01-03T01:03:59.669Z,4.50
2023-01-03T01:06:28.948Z,4.48
2023-01-03T01:08:58.790Z,4.56
2023-01-03T01:11:26.958Z,4.59
2023-01-03T01:13:54.358Z,4.57
2023-01-03T01:16:24.341Z,4.58
2023-01-03T01:18:53.811Z,4.57
2023-01-03T01:21:24.508Z,4.74
2023-01-03T01:23:51.429Z,4.80
2023-01-03T01:26:20.626Z,4.86
2023-01-03T01:28:47.236Z,4.86
2023-01-03T01:31:17.134Z,4.86
2023-01-03T01:33:44.078Z,4.92
2023-01-03T01:36:17.137Z,4.96
2023-01-03T01:38:44.688Z,5.07
2023-01-03T01:41:14.515Z,4.93
2023-01-03T01:44:18.633Z,5.14
2023-01-03T01:46:45.432Z,5.20
2023-01-03T01:49:17.210Z,5.20
2023-01-03T01:51:44.173Z,5.28
2023-01-03T01:54:11.340Z,5.22
2023-01-03T01:56:46.584Z,5.36
2023-01-03T01:59:14.337Z,5.34
2023-01-03T02:01:44.890Z,5.43
2023-01-03T02:04:19.267Z,5.31
2023-01-03T02:06:45.887Z,5.41
2023-01-03T02:09:12.525Z,5.33
2023-01-03T02:12:17.402Z,5.45
2023-01-03T02:15:07.442Z,5.46
2023-01-03T02:17:39.786Z,5.49
2023-01-03T02:20:20.391Z,5.52
2023-01-03T02:23:08.971Z,5.55
2023-01-03T02:25:44.567Z,5.57
2023-01-03T02:28:26.340Z,5.61
2023-01-03T02:31:11.491Z,5.56
2023-01-03T02:33:53.555Z,5.45
2023-01-03T02:36:29.046Z,5.50
2023-01-03T02:39:13.040Z,5.52
2023-01-03T02:41:48.935Z,5.34
2023-01-03T02:44:22.858Z,5.44
2023-01-03T02:47:06.651Z,5.40
2023-01-03T02:49:43.130Z,5.39
2023-01-03T02:52:17.487Z,5.38
2023-01-03T02:54:50.389Z,5.24
2023-01-03T02:57:22.183Z,5.31
2023-01-03T02:59:57.802Z,5.31
2023-01-03T03:02:29.454Z,5.32
2023-01-03T03:04:57.724Z,5.29
2023-01-03T03:07:29.228Z,5.24
2023-01-03T03:10:15.289Z,5.18
2023-01-03T03:13:04.051Z,4.99
2023-01-03T03:15:49.626Z,4.94
2023-01-03T03:18:47.106Z,4.86
2023-01-03T03:21:35.297Z,4.72
2023-01-03T03:24:35.503Z,4.72
2023-01-03T03:27:26.102Z,4.57
2023-01-03T03:29:57.036Z,4.53
2023-01-03T03:32:26.768Z,4.51
2023-01-03T03:34:57.403Z,4.48
2023-01-03T03:37:27.018Z,4.25
2023-01-03T03:40:13.646Z,4.33
2023-01-03T03:43:09.295Z,4.30
2023-01-03T03:45:38.517Z,4.24
2023-01-03T03:48:11.642Z,4.18
2023-01-03T03:50:46.489Z,4.04
2023-01-03T03:53:16.177Z,4.01
2023-01-03T03:55:42.612Z,4.03
2023-01-03T03:58:22.037Z,3.99
2023-01-03T04:00:52.065Z,3.88
2023-01-03T04:03:21.187Z,3.87
2023-01-03T04:05:57.642Z,3.63
2023-01-03T04:08:24.476Z,3.69
2023-01-03T04:10:51.336Z,3.63
2023-01-03T04:13:17.958Z,3.63
2023-01-03T04:15:44.611Z,3.62
2023-01-03T04:18:11.175Z,3.60
2023-01-03T04:20:37.682Z,3.57
2023-01-03T04:23:04.342Z,3.52
2023-01-03T04:25:30.871Z,3.52
2023-01-03T04:27:57.581Z,3.41
2023-01-03T04:30:24.377Z,3.42
2023-01-03T04:32:50.859Z,3.60
2023-01-03T04:35:17.426Z,3.61
2023-01-03T04:37:43.964Z,3.70
2023-01-03T04:40:11.200Z,3.61
2023-01-03T04:42:56.401Z,3.73
2023-01-03T04:45:22.981Z,3.73
2023-01-03T04:47:49.507Z,3.58
2023-01-03T04:50:16.136Z,3.74
2023-01-03T04:52:42.724Z,3.62
2023-01-03T04:55:09.767Z,3.60
2023-01-03T04:57:36.927Z,3.63
2023-01-03T05:00:05.864Z,3.65
2023-01-03T05:02:32.527Z,3.51
2023-01-03T05:04:59.092Z,3.52
2023-01-03T05:07:28.183Z,3.46
2023-01-03T05:09:54.727Z,3.41
2023-01-03T05:12:21.497Z,3.41
2023-01-03T05:14:48.056Z,3.39
2023-01-03T05:17:14.549Z,3.42
2023-01-03T05:19:59.621Z,3.46
2023-01-03T05:22:45.077Z,3.51
2023-01-03T05:25:30.196Z,3.53
2023-01-03T05:27:58.206Z,3.56
2023-01-03T05:30:25.276Z,3.59
2023-01-03T05:32:51.778Z,3.64
2023-01-03T05:35:18.535Z,3.66
2023-01-03T05:37:45.109Z,3.63
2023-01-03T05:40:12.228Z,3.69
2023-01-03T05:42:38.858Z,3.64
2023-01-03T05:45:06.160Z,3.77
2023-01-03T05:47:32.805Z,3.86
2023-01-03T05:49:59.368Z,3.89
2023-01-03T05:52:25.818Z,3.99
2023-01-03T05:54:52.296Z,4.01
2023-01-03T05:57:18.983Z,4.08
2023-01-03T05:59:45.620Z,3.87
2023-01-03T06:02:12.235Z,4.04
2023-01-03T06:04:38.912Z,4.08
2023-01-03T06:07:05.734Z,4.14
2023-01-03T06:09:32.267Z,4.16
2023-01-03T06:11:58.903Z,4.15
2023-01-03T06:14:25.561Z,4.31
2023-01-03T06:17:10.782Z,4.25
2023-01-03T06:19:37.329Z,4.31
2023-01-03T06:22:10.207Z,4.51
2023-01-03T06:24:37.452Z,4.45
2023-01-03T06:27:04.023Z,4.56
2023-01-03T06:29:30.632Z,4.68
2023-01-03T06:31:57.624Z,4.54
2023-01-03T06:34:24.298Z,4.72
2023-01-03T06:36:50.853Z,4.94
2023-01-03T06:39:17.470Z,5.04
2023-01-03T06:41:43.988Z,5.00
2023-01-03T06:44:11.607Z,5.23
2023-01-03T06:46:56.647Z,5.25
2023-01-03T06:49:41.494Z,5.30
2023-01-03T06:52:32.770Z,5.37
2023-01-03T06:54:59.377Z,5.55
2023-01-03T06:57:27.420Z,5.61
2023-01-03T06:59:55.451Z,5.80
2023-01-03T07:02:22.186Z,5.85
2023-01-03T07:04:48.871Z,5.96
2023-01-03T07:07:15.474Z,6.20
2023-01-03T07:09:42.015Z,6.32
2023-01-03T07:12:34.655Z,6.40
2023-01-03T07:15:01.219Z,6.57
2023-01-03T07:17:27.766Z,6.75
2023-01-03T07:19:54.337Z,6.86
2023-01-03T07:22:20.842Z,6.82
2023-01-03T07:24:47.426Z,7.01
2023-01-03T07:27:14.232Z,7.09
2023-01-03T07:29:40.878Z,6.99
2023-01-03T07:32:07.352Z,7.11
2023-01-03T07:34:33.948Z,7.25
2023-01-03T07:37:00.406Z,7.34
2023-01-03T07:39:27.044Z,7.35
2023-01-03T07:42:12.208Z,7.46
2023-01-03T07:44:38.704Z,7.53
2023-01-03T07:47:05.201Z,7.57
2023-01-03T07:49:31.680Z,7.48
2023-01-03T07:51:58.164Z,7.78
2023-01-03T07:54:24.733Z,7.85
2023-01-03T07:56:51.332Z,7.90
2023-01-03T07:59:17.898Z,8.01
2023-01-03T08:01:44.532Z,8.05
2023-01-03T08:04:11.179Z,8.15
2023-01-03T08:06:37.665Z,8.22
2023-01-03T08:09:22.809Z,8.29
2023-01-03T08:12:07.548Z,8.38
2023-01-03T08:14:34.068Z,8.24
2023-01-03T08:17:00.630Z,8.50
2023-01-03T08:19:27.330Z,8.47
2023-01-03T08:21:53.911Z,8.50
2023-01-03T08:24:20.477Z,8.56
2023-01-03T08:26:47.034Z,8.67
2023-01-03T08:29:15.188Z,8.69
2023-01-03T08:31:49.765Z,8.73
2023-01-03T08:34:23.662Z,8.81
2023-01-03T08:37:00.766Z,8.86
2023-01-03T08:39:33.549Z,8.82
2023-01-03T08:42:03.900Z,8.93
2023-01-03T08:44:30.485Z,8.96
2023-01-03T08:46:59.833Z,8.96
2023-01-03T08:49:26.811Z,8.96
2023-01-03T08:51:53.521Z,9.10
2023-01-03T08:54:20.018Z,9.15
2023-01-03T08:56:46.755Z,9.07
2023-01-03T08:59:13.379Z,9.23
2023-01-03T09:01:40.375Z,9.21
2023-01-03T09:04:07.114Z,9.30
2023-01-03T09:06:34.203Z,9.23
2023-01-03T09:09:05.219Z,9.25
2023-01-03T09:11:31.711Z,9.42
2023-01-03T09:13:58.173Z,9.45
2023-01-03T09:16:24.702Z,9.50
2023-01-03T09:18:51.253Z,9.52
2023-01-03T09:21:17.812Z,9.59
2023-01-03T09:23:44.315Z,9.60
2023-01-03T09:26:11.687Z,9.63
2023-01-03T09:28:38.188Z,9.48
2023-01-03T09:31:05.068Z,9.60
2023-01-03T09:33:31.601Z,9.72
2023-01-03T09:35:58.121Z,9.74
2023-01-03T09:38:24.646Z,9.70
2023-01-03T09:41:01.278Z,9.73
2023-01-03T09:43:41.056Z,9.73
2023-01-03T09:46:17.963Z,9.75
2023-01-03T09:48:45.513Z,9.75
2023-01-03T09:51:38.430Z,9.76
2023-01-03T09:54:28.845Z,9.75
2023-01-03T09:57:13.667Z,9.77
2023-01-03T09:59:58.969Z,9.71
2023-01-03T10:02:50.359Z,9.75
2023-01-03T10:05:31.127Z,9.75
2023-01-03T10:08:21.991Z,9.74
2023-01-03T10:10:59.768Z,9.72
2023-01-03T10:13:35.732Z,9.74
2023-01-03T10:16:17.518Z,9.69
2023-01-03T10:18:53.166Z,9.78
2023-01-03T10:21:31.759Z,9.79
2023-01-03T10:23:59.354Z,9.79
2023-01-03T10:26:33.564Z,9.80
2023-01-03T10:29:00.857Z,9.80
2023-01-03T10:31:40.257Z,9.81
2023-01-03T10:34:07.397Z,9.82
2023-01-03T10:36:33.916Z,9.80
2023-01-03T10:39:11.164Z,9.83
2023-01-03T10:41:46.367Z,9.82
2023-01-03T10:44:30.589Z,9.84
2023-01-03T10:47:10.036Z,9.85
2023-01-03T10:49:36.708Z,9.85
2023-01-03T10:52:12.237Z,9.89
2023-01-03T10:54:42.094Z,9.93
2023-01-03T10:57:57.005Z,9.93
2023-01-03T11:00:31.529Z,9.95
2023-01-03T11:03:18.454Z,9.95
2023-01-03T11:05:47.937Z,9.92
2023-01-03T11:08:46.850Z,9.97
2023-01-03T11:11:27.329Z,9.97
2023-01-03T11:14:10.438Z,9.96
2023-01-03T11:16:37.113Z,9.98
2023-01-03T11:19:05.862Z,9.95
2023-01-03T11:21:48.311Z,9.97
2023-01-03T11:24:18.168Z,10.01
2023-01-03T11:27:14.788Z,10.01
2023-01-03T11:29:41.347Z,10.02
2023-01-03T11:32:19.881Z,9.99
2023-01-03T11:35:24.076Z,10.06
2023-01-03T11:38:05.449Z,10.07
2023-01-03T11:40:41.142Z,10.09
2023-01-03T11:43:19.168Z,10.10
2023-01-03T11:46:06.959Z,10.12
2023-01-03T11:48:48.600Z,10.09
2023-01-03T11:51:31.431Z,10.09
2023-01-03T11:54:07.253Z,10.15
2023-01-03T11:56:44.475Z,10.17
2023-01-03T11:59:33.068Z,10.16
2023-01-03T12:02:27.559Z,10.21
2023-01-03T12:05:09.347Z,10.21
2023-01-03T12:07:48.914Z,10.22
2023-01-03T12:10:25.652Z,10.15
2023-01-03T12:13:15.038Z,10.24
2023-01-03T12:15:47.526Z,10.25
2023-01-03T12:18:22.358Z,10.27
2023-01-03T12:20:56.509Z,10.18
2023-01-03T12:23:54.849Z,10.27
2023-01-03T12:26:24.565Z,10.28
2023-01-03T12:29:18.210Z,10.23
2023-01-03T12:31:44.856Z,10.30
2023-01-03T12:34:57.643Z,10.34
2023-01-03T12:37:29.681Z,10.31
2023-01-03T12:40:13.177Z,10.36
2023-01-03T12:43:09.772Z,10.39
2023-01-03T12:46:16.076Z,10.43
2023-01-03T12:48:52.559Z,10.45
2023-01-03T12:51:24.637Z,10.41
2023-01-03T12:54:14.658Z,10.45
2023-01-03T12:56:46.836Z,10.47
2023-01-03T12:59:47.372Z,10.45
2023-01-03T13:02:26.381Z,10.49
2023-01-03T13:04:59.770Z,10.48
2023-01-03T13:07:29.545Z,10.47
2023-01-03T13:10:01.666Z,10.52
2023-01-03T13:12:31.708Z,10.56
2023-01-03T13:14:58.168Z,10.60
2023-01-03T13:17:26.849Z,10.64
2023-01-03T13:20:24.813Z,10.63
2023-01-03T13:23:13.098Z,10.68
2023-01-03T13:25:41.451Z,10.62
2023-01-03T13:28:20.202Z,10.74
2023-01-03T13:30:47.553Z,10.74
2023-01-03T13:33:16.826Z,10.77
2023-01-03T13:35:46.255Z,10.78
2023-01-03T13:38:35.723Z,10.76
2023-01-03T13:41:26.344Z,10.79
2023-01-03T13:43:54.741Z,10.80
2023-01-03T13:46:32.821Z,10.81
2023-01-03T13:49:06.420Z,10.80
2023-01-03T13:51:39.026Z,10.82
2023-01-03T13:54:11.756Z,10.83
2023-01-03T13:56:44.254Z,10.83
2023-01-03T13:59:33.031Z,10.84
2023-01-03T14:02:21.586Z,10.84
2023-01-03T14:05:15.884Z,10.84
2023-01-03T14:07:45.065Z,10.86
2023-01-03T14:10:49.998Z,10.88
2023-01-03T14:13:44.069Z,10.89
2023-01-03T14:16:19.622Z,10.91
2023-01-03T14:18:51.561Z,10.91
2023-01-03T14:21:38.954Z,10.91
2023-01-03T14:24:06.505Z,10.92
2023-01-03T14:26:33.116Z,10.95
2023-01-03T14:29:00.298Z,10.95
2023-01-03T14:31:28.075Z,10.86
2023-01-03T14:33:58.493Z,10.96
2023-01-03T14:36:25.805Z,10.94
2023-01-03T14:38:58.434Z,10.93
2023-01-03T14:41:39.744Z,10.91
2023-01-03T14:44:12.423Z,10.91
2023-01-03T14:46:47.979Z,10.90
2023-01-03T14:49:34.530Z,10.88
2023-01-03T14:52:13.704Z,10.86
2023-01-03T14:54:44.921Z,10.87
2023-01-03T14:57:21.151Z,10.86
2023-01-03T14:59:48.875Z,10.89
2023-01-03T15:02:16.020Z,10.90
2023-01-03T15:04:48.837Z,10.91
2023-01-03T15:07:30.056Z,10.93
2023-01-03T15:10:37.151Z,10.94
2023-01-03T15:13:05.132Z,10.93
2023-01-03T15:15:39.385Z,10.95
2023-01-03T15:18:09.708Z,10.89
2023-01-03T15:20:43.710Z,10.93
2023-01-03T15:23:42.057Z,10.95
2023-01-03T15:26:24.888Z,10.87
2023-01-03T15:29:14.673Z,10.88
2023-01-03T15:31:50.814Z,10.90
2023-01-03T15:34:19.205Z,10.91
2023-01-03T15:36:49.344Z,10.93
2023-01-03T15:39:25.922Z,10.95
2023-01-03T15:42:50.332Z,10.93
2023-01-03T15:45:27.825Z,10.93
2023-01-03T15:48:01.181Z,10.90
2023-01-03T15:50:43.239Z,10.84
2023-01-03T15:53:37.802Z,10.92
2023-01-03T15:56:20.196Z,10.91
2023-01-03T15:58:53.668Z,10.85
2023-01-03T16:01:21.455Z,10.91
2023-01-03T16:03:49.961Z,10.90
2023-01-03T16:06:17.087Z,10.85
2023-01-03T16:08:44.358Z,10.95
2023-01-03T16:11:23.710Z,10.99
2023-01-03T16:14:01.058Z,10.99
2023-01-03T16:16:32.459Z,10.91
2023-01-03T16:18:59.208Z,10.94
2023-01-03T16:21:26.490Z,10.98
2023-01-03T16:23:53.049Z,11.01
2023-01-03T16:26:20.133Z,11.03
2023-01-03T16:28:46.695Z,10.97
2023-01-03T16:31:20.100Z,11.02
2023-01-03T16:33:49.694Z,11.02
2023-01-03T16:36:22.937Z,11.03
2023-01-03T16:38:49.649Z,11.00
2023-01-03T16:41:16.119Z,11.04
2023-01-03T16:43:42.700Z,10.99
2023-01-03T16:46:11.878Z,11.04
2023-01-03T16:48:40.453Z,11.05
2023-01-03T16:51:07.003Z,10.92
2023-01-03T16:53:39.834Z,10.97
2023-01-03T16:56:07.417Z,10.99
2023-01-03T16:58:34.010Z,10.98
2023-01-03T17:01:00.754Z,10.99
2023-01-03T17:03:27.472Z,11.02
2023-01-03T17:05:54.142Z,11.05
2023-01-03T17:08:25.752Z,11.05
2023-01-03T17:10:55.377Z,11.03
2023-01-03T17:13:32.737Z,11.02
2023-01-03T17:16:01.157Z,11.05
2023-01-03T17:18:37.277Z,11.07
2023-01-03T17:21:15.387Z,11.07
2023-01-03T17:23:43.975Z,11.03
2023-01-03T17:26:16.801Z,11.11
2023-01-03T17:28:44.978Z,11.06
2023-01-03T17:31:23.150Z,11.13
2023-01-03T17:33:50.891Z,11.10
2023-01-03T17:36:35.779Z,11.11
2023-01-03T17:39:03.730Z,11.11
2023-01-03T17:41:51.089Z,11.11
2023-01-03T17:44:17.827Z,11.09
2023-01-03T17:47:03.069Z,11.12
2023-01-03T17:49:29.839Z,11.09
2023-01-03T17:52:00.178Z,11.11
2023-01-03T17:54:30.080Z,11.14
2023-01-03T17:56:58.924Z,11.12
2023-01-03T17:59:26.499Z,11.15
2023-01-03T18:01:55.838Z,11.13
2023-01-03T18:04:30.216Z,11.15
2023-01-03T18:07:05.051Z,11.12
2023-01-03T18:09:33.134Z,11.07
2023-01-03T18:12:02.087Z,11.19
2023-01-03T18:14:28.722Z,11.20
2023-01-03T18:16:55.558Z,11.18
2023-01-03T18:19:22.241Z,11.22
2023-01-03T18:21:49.205Z,11.23
2023-01-03T18:24:21.910Z,11.25
2023-01-03T18:26:52.840Z,11.21
2023-01-03T18:29:19.698Z,11.21
2023-01-03T18:31:47.163Z,11.24
2023-01-03T18:34:14.895Z,11.26
2023-01-03T18:36:51.211Z,11.32
2023-01-03T18:39:28.218Z,11.34
2023-01-03T18:42:15.932Z,11.34
2023-01-03T18:44:42.441Z,11.36
2023-01-03T18:47:12.727Z,11.29
2023-01-03T18:49:39.283Z,11.36
2023-01-03T18:52:06.064Z,11.40
2023-01-03T18:54:37.390Z,11.37
2023-01-03T18:57:04.137Z,11.41
2023-01-03T18:59:31.938Z,11.37
2023-01-03T19:01:58.749Z,11.37
2023-01-03T19:04:25.379Z,11.39
2023-01-03T19:06:52.506Z,11.36
2023-01-03T19:09:25.229Z,11.36
2023-01-03T19:11:53.515Z,11.41
2023-01-03T19:14:20.333Z,11.42
2023-01-03T19:16:47.092Z,11.38
2023-01-03T19:19:13.607Z,11.43
2023-01-03T19:21:42.725Z,11.43
2023-01-03T19:24:38.160Z,11.44
2023-01-03T19:27:21.104Z,11.44
2023-01-03T19:29:49.260Z,11.34
2023-01-03T19:32:25.763Z,11.37
2023-01-03T19:34:52.373Z,11.42
2023-01-03T19:37:18.951Z,11.46
2023-01-03T19:39:45.975Z,11.38
2023-01-03T19:42:33.756Z,11.46
2023-01-03T19:45:02.484Z,11.49
2023-01-03T19:47:29.265Z,11.49
2023-01-03T19:49:57.126Z,11.50
2023-01-03T19:52:24.735Z,11.50
2023-01-03T19:54:53.618Z,11.41
2023-01-03T19:57:24.474Z,11.47
2023-01-03T19:59:54.341Z,11.53
2023-01-03T20:02:40.130Z,11.52
2023-01-03T20:05:15.570Z,11.54
2023-01-03T20:07:42.798Z,11.56
2023-01-03T20:10:13.894Z,11.56
2023-01-03T20:12:40.796Z,11.60
2023-01-03T20:15:15.941Z,11.59
2023-01-03T20:17:42.504Z,11.64
2023-01-03T20:20:11.322Z,11.69
2023-01-03T20:23:03.638Z,11.69
2023-01-03T20:25:27.672Z,11.73
2023-01-03T20:27:55.240Z,11.67
2023-01-03T20:30:24.918Z,11.72
2023-01-03T20:32:52.213Z,11.80
2023-01-03T20:38:11.770Z,11.78
2023-01-03T20:40:39.142Z,11.85
2023-01-03T20:43:06.297Z,11.92
2023-01-03T20:45:33.866Z,11.91
2023-01-03T20:48:00.563Z,11.97
2023-01-03T20:50:29.322Z,12.10
2023-01-03T20:52:58.087Z,12.16
2023-01-03T20:55:26.347Z,12.20
2023-01-03T20:57:52.924Z,12.18
2023-01-03T21:00:28.578Z,12.29
2023-01-03T21:02:55.415Z,12.27
2023-01-03T21:05:22.262Z,12.33
2023-01-03T21:08:08.813Z,12.31
2023-01-03T21:10:43.604Z,12.37
2023-01-03T21:13:11.095Z,12.43
2023-01-03T21:15:38.422Z,12.46
2023-01-03T21:18:06.393Z,12.44
2023-01-03T21:20:33.857Z,12.50
2023-01-03T21:23:00.441Z,12.51
2023-01-03T21:25:35.390Z,12.53
2023-01-03T21:28:03.231Z,12.52
2023-01-03T21:30:31.270Z,12.56
2023-01-03T21:32:59.629Z,12.51
2023-01-03T21:35:27.278Z,12.58
2023-01-03T21:37:54.753Z,12.54
2023-01-03T21:40:21.197Z,12.54
2023-01-03T21:43:04.483Z,12.64
2023-01-03T21:45:35.008Z,12.67
2023-01-03T21:48:04.757Z,12.67
2023-01-03T21:50:38.433Z,12.65
2023-01-03T21:53:05.361Z,12.68
2023-01-03T21:55:32.038Z,12.61
2023-01-03T21:57:59.371Z,12.66
2023-01-03T22:00:26.065Z,12.69
2023-01-03T22:03:11.437Z,12.71
2023-01-03T22:05:37.952Z,12.70
2023-01-03T22:08:04.597Z,12.71
2023-01-03T22:10:32.655Z,12.73
2023-01-03T22:13:02.645Z,12.69
2023-01-03T22:15:29.271Z,12.68
2023-01-03T22:17:55.893Z,12.66
2023-01-03T22:20:24.811Z,12.74
2023-01-03T22:22:51.826Z,12.67
2023-01-03T22:25:21.075Z,12.68
2023-01-03T22:27:47.917Z,12.71
2023-01-03T22:30:17.762Z,12.68
2023-01-03T22:32:44.621Z,12.73
2023-01-03T22:35:13.527Z,12.66
2023-01-03T22:37:40.406Z,12.67
2023-01-03T22:40:10.682Z,12.68
2023-01-03T22:42:37.279Z,12.73
2023-01-03T22:45:04.605Z,12.74
2023-01-03T22:47:31.203Z,12.73
2023-01-03T22:49:57.916Z,12.63
2023-01-03T22:52:24.537Z,12.65
2023-01-03T22:54:51.160Z,12.68
2023-01-03T22:57:17.825Z,12.72
2023-01-03T22:59:44.437Z,12.69
2023-01-03T23:02:11.207Z,12.69
2023-01-03T23:04:38.128Z,12.65
2023-01-03T23:07:04.805Z,12.67
2023-01-03T23:09:31.388Z,12.67
2023-01-03T23:12:16.554Z,12.67
2023-01-03T23:14:43.132Z,12.68
2023-01-03T23:17:28.712Z,12.69
2023-01-03T23:19:55.351Z,12.71
2023-01-03T23:22:21.802Z,12.62
2023-01-03T23:24:48.320Z,12.70
2023-01-03T23:27:15.054Z,12.72
2023-01-03T23:29:41.548Z,12.67
2023-01-03T23:32:08.116Z,12.68
2023-01-03T23:34:34.600Z,12.69
2023-01-03T23:37:01.103Z,12.64
2023-01-03T23:39:27.648Z,12.69
2023-01-03T23:41:54.212Z,12.71
2023-01-03T23:44:20.686Z,12.72
2023-01-03T23:46:47.407Z,12.64
2023-01-03T23:49:16.150Z,12.74
2023-01-03T23:51:43.186Z,12.73
2023-01-03T23:54:10.689Z,12.74
2023-01-03T23:56:38.174Z,12.76
2023-01-03T23:59:04.764Z,12.74
